Time;durP1;ratioP1;P1;durP2;ratioP2;P2;SDS_P1;SDS_P2;PMS_P1;PMS_P2;Temp;Humidity;BMP_temperature;BMP_pressure;BME280_temperature;BME280_humidity;BME280_pressure;Samples;Min_cycle;Max_cycle;Signal;HPM_P1;HPM_P2
2020/11/06 00:00:32;;;;;;;46.1;26.2;;;;;;;4.16;100;96802.53;;;;
2020/11/06 00:01:34;;;;;;;53.40001;28.2;;;;;;;4.07;100;96804.82;;;;
2020/11/06 00:02:36;;;;;;;53.40001;28.2;;;;;;;4.07;100;96804.82;;;;
2020/11/06 00:03:37;;;;;;;53.40001;28.2;;;;;;;4.07;100;96804.82;;;;
2020/11/06 00:04:41;;;;;;;53.40001;28.2;;;;;;;4.07;100;96804.82;;;;
2020/11/06 00:05:41;;;;;;;53.40001;28.2;;;;;;;4.07;100;96804.82;;;;
2020/11/06 00:07:17;;;;;;;53.40001;28.2;;;;;;;4.07;100;96804.82;;;;
2020/11/06 00:08:19;;;;;;;53.40001;28.2;;;;;;;4.07;100;96804.82;;;;
2020/11/06 00:09:22;;;;;;;53.40001;28.2;;;;;;;4.07;100;96804.82;;;;
2020/11/06 00:10:56;;;;;;;53.40001;28.2;;;;;;;4.07;100;96804.82;;;;
2020/11/06 00:12:01;;;;;;;53.40001;28.2;;;;;;;4.07;100;96804.82;;;;
2020/11/06 00:13:14;;;;;;;47.2;26.65;;;;;;;3.99;100;96804.37;;;;
2020/11/06 00:14:18;;;;;;;47.2;26.65;;;;;;;3.99;100;96804.37;;;;
2020/11/06 00:15:35;;;;;;;47.2;26.65;;;;;;;3.99;100;96804.37;;;;
2020/11/06 00:16:56;;;;;;;47.2;26.65;;;;;;;3.99;100;96804.37;;;;
2020/11/06 00:17:57;;;;;;;47.2;26.65;;;;;;;3.99;100;96804.37;;;;
2020/11/06 00:19:31;;;;;;;47.2;26.65;;;;;;;3.99;100;96804.37;;;;
2020/11/06 00:20:35;;;;;;;47.2;26.65;;;;;;;3.99;100;96804.37;;;;
2020/11/06 00:21:37;;;;;;;47.2;26.65;;;;;;;3.99;100;96804.37;;;;
2020/11/06 00:22:38;;;;;;;47.2;26.65;;;;;;;3.99;100;96804.37;;;;
2020/11/06 00:23:38;;;;;;;52.5;27.3;;;;;;;3.87;100;96802.03;;;;
2020/11/06 00:24:39;;;;;;;52.5;27.3;;;;;;;3.87;100;96802.03;;;;
2020/11/06 00:25:40;;;;;;;52.5;27.3;;;;;;;3.87;100;96802.03;;;;
2020/11/06 00:26:56;;;;;;;52.5;27.3;;;;;;;3.87;100;96802.03;;;;
2020/11/06 00:28:34;;;;;;;52.5;27.3;;;;;;;3.87;100;96802.03;;;;
2020/11/06 00:29:47;;;;;;;52.5;27.3;;;;;;;3.87;100;96802.03;;;;
2020/11/06 00:30:48;;;;;;;52.5;27.3;;;;;;;3.87;100;96802.03;;;;
2020/11/06 00:31:48;;;;;;;52.5;27.3;;;;;;;3.87;100;96802.03;;;;
2020/11/06 00:32:49;;;;;;;52.5;27.3;;;;;;;3.87;100;96802.03;;;;
2020/11/06 00:34:14;;;;;;;59.75;29.45;;;;;;;3.78;100;96794.53;;;;
2020/11/06 00:35:15;;;;;;;59.75;29.45;;;;;;;3.78;100;96794.53;;;;
2020/11/06 00:36:16;;;;;;;59.75;29.45;;;;;;;3.78;100;96794.53;;;;
2020/11/06 00:37:23;;;;;;;59.75;29.45;;;;;;;3.78;100;96794.53;;;;
2020/11/06 00:38:23;;;;;;;59.75;29.45;;;;;;;3.78;100;96794.53;;;;
2020/11/06 00:39:24;;;;;;;59.75;29.45;;;;;;;3.78;100;96794.53;;;;
2020/11/06 00:40:28;;;;;;;59.75;29.45;;;;;;;3.78;100;96794.53;;;;
2020/11/06 00:41:29;;;;;;;59.75;29.45;;;;;;;3.78;100;96794.53;;;;
2020/11/06 00:43:05;;;;;;;59.75;29.45;;;;;;;3.78;100;96794.53;;;;
2020/11/06 00:44:18;;;;;;;50.15;26.95;;;;;;;3.77;100;96791.05;;;;
2020/11/06 00:45:21;;;;;;;50.15;26.95;;;;;;;3.77;100;96791.05;;;;
2020/11/06 00:46:21;;;;;;;50.15;26.95;;;;;;;3.77;100;96791.05;;;;
2020/11/06 00:47:42;;;;;;;50.15;26.95;;;;;;;3.77;100;96791.05;;;;
2020/11/06 00:48:43;;;;;;;50.15;26.95;;;;;;;3.77;100;96791.05;;;;
2020/11/06 00:50:04;;;;;;;50.15;26.95;;;;;;;3.77;100;96791.05;;;;
2020/11/06 00:51:04;;;;;;;50.15;26.95;;;;;;;3.77;100;96791.05;;;;
2020/11/06 00:52:05;;;;;;;50.15;26.95;;;;;;;3.77;100;96791.05;;;;
2020/11/06 00:55:40;;;;;;;47.25;26.2;;;;;;;3.7;100;96785.08;;;;
2020/11/06 00:56:41;;;;;;;47.25;26.2;;;;;;;3.7;100;96785.08;;;;
2020/11/06 00:58:14;;;;;;;47.25;26.2;;;;;;;3.7;100;96785.08;;;;
2020/11/06 00:59:36;;;;;;;47.25;26.2;;;;;;;3.7;100;96785.08;;;;
2020/11/06 01:00:36;;;;;;;47.25;26.2;;;;;;;3.7;100;96785.08;;;;
2020/11/06 01:01:44;;;;;;;47.25;26.2;;;;;;;3.7;100;96785.08;;;;
2020/11/06 01:02:45;;;;;;;47.25;26.2;;;;;;;3.7;100;96785.08;;;;
2020/11/06 01:03:47;;;;;;;47.25;26.2;;;;;;;3.7;100;96785.08;;;;
2020/11/06 01:04:48;;;;;;;47.25;26.2;;;;;;;3.7;100;96785.08;;;;
2020/11/06 01:06:07;;;;;;;45.69999;25.75;;;;;;;3.48;100;96791.83;;;;
2020/11/06 01:07:16;;;;;;;45.69999;25.75;;;;;;;3.48;100;96791.83;;;;
2020/11/06 01:08:24;;;;;;;45.69999;25.75;;;;;;;3.48;100;96791.83;;;;
2020/11/06 01:09:52;;;;;;;45.69999;25.75;;;;;;;3.48;100;96791.83;;;;
2020/11/06 01:11:06;;;;;;;45.69999;25.75;;;;;;;3.48;100;96791.83;;;;
2020/11/06 01:12:09;;;;;;;45.69999;25.75;;;;;;;3.48;100;96791.83;;;;
2020/11/06 01:13:10;;;;;;;45.69999;25.75;;;;;;;3.48;100;96791.83;;;;
2020/11/06 01:14:10;;;;;;;45.69999;25.75;;;;;;;3.48;100;96791.83;;;;
2020/11/06 01:15:12;;;;;;;45.69999;25.75;;;;;;;3.48;100;96791.83;;;;
2020/11/06 01:16:14;;;;;;;52;25.8;;;;;;;3.24;100;96788.14;;;;
2020/11/06 01:17:16;;;;;;;52;25.8;;;;;;;3.24;100;96788.14;;;;
2020/11/06 01:18:26;;;;;;;52;25.8;;;;;;;3.24;100;96788.14;;;;
2020/11/06 01:19:51;;;;;;;52;25.8;;;;;;;3.24;100;96788.14;;;;
2020/11/06 01:20:52;;;;;;;52;25.8;;;;;;;3.24;100;96788.14;;;;
2020/11/06 01:21:55;;;;;;;52;25.8;;;;;;;3.24;100;96788.14;;;;
2020/11/06 01:25:56;;;;;;;52;25.8;;;;;;;3.24;100;96788.14;;;;
2020/11/06 01:26:57;;;;;;;51.05001;27.2;;;;;;;3.1;100;96772.6;;;;
2020/11/06 01:27:59;;;;;;;51.05001;27.2;;;;;;;3.1;100;96772.6;;;;
2020/11/06 01:29:18;;;;;;;51.05001;27.2;;;;;;;3.1;100;96772.6;;;;
2020/11/06 01:30:20;;;;;;;51.05001;27.2;;;;;;;3.1;100;96772.6;;;;
2020/11/06 01:31:54;;;;;;;51.05001;27.2;;;;;;;3.1;100;96772.6;;;;
2020/11/06 01:33:07;;;;;;;51.05001;27.2;;;;;;;3.1;100;96772.6;;;;
2020/11/06 01:34:07;;;;;;;51.05001;27.2;;;;;;;3.1;100;96772.6;;;;
2020/11/06 01:35:08;;;;;;;51.05001;27.2;;;;;;;3.1;100;96772.6;;;;
2020/11/06 01:36:13;;;;;;;51.05001;27.2;;;;;;;3.1;100;96772.6;;;;
2020/11/06 01:37:35;;;;;;;54.7;28.7;;;;;;;3.01;100;96763.26;;;;
2020/11/06 01:38:47;;;;;;;54.7;28.7;;;;;;;3.01;100;96763.26;;;;
2020/11/06 01:39:50;;;;;;;54.7;28.7;;;;;;;3.01;100;96763.26;;;;
2020/11/06 01:41:14;;;;;;;54.7;28.7;;;;;;;3.01;100;96763.26;;;;
2020/11/06 01:42:16;;;;;;;54.7;28.7;;;;;;;3.01;100;96763.26;;;;
2020/11/06 01:43:40;;;;;;;54.7;28.7;;;;;;;3.01;100;96763.26;;;;
2020/11/06 01:45:03;;;;;;;54.7;28.7;;;;;;;3.01;100;96763.26;;;;
2020/11/06 01:46:21;;;;;;;54.7;28.7;;;;;;;3.01;100;96763.26;;;;
2020/11/06 01:47:43;;;;;;;54.7;28.7;;;;;;;3.01;100;96763.26;;;;
2020/11/06 01:49:04;;;;;;;57.45;28.5;;;;;;;2.98;100;96763.58;;;;
2020/11/06 01:50:57;;;;;;;57.45;28.5;;;;;;;2.98;100;96763.58;;;;
2020/11/06 01:52:59;;;;;;;57.45;28.5;;;;;;;2.98;100;96763.58;;;;
2020/11/06 01:54:20;;;;;;;57.45;28.5;;;;;;;2.98;100;96763.58;;;;
2020/11/06 01:55:41;;;;;;;57.45;28.5;;;;;;;2.98;100;96763.58;;;;
2020/11/06 01:56:45;;;;;;;57.45;28.5;;;;;;;2.98;100;96763.58;;;;
2020/11/06 01:57:46;;;;;;;57.45;28.5;;;;;;;2.98;100;96763.58;;;;
2020/11/06 01:59:11;;;;;;;67.24999;31.25;;;;;;;3.01;100;96753.99;;;;
2020/11/06 02:00:13;;;;;;;67.24999;31.25;;;;;;;3.01;100;96753.99;;;;
2020/11/06 02:01:16;;;;;;;67.24999;31.25;;;;;;;3.01;100;96753.99;;;;
2020/11/06 02:02:36;;;;;;;67.24999;31.25;;;;;;;3.01;100;96753.99;;;;
2020/11/06 02:03:47;;;;;;;67.24999;31.25;;;;;;;3.01;100;96753.99;;;;
2020/11/06 02:05:01;;;;;;;67.24999;31.25;;;;;;;3.01;100;96753.99;;;;
2020/11/06 02:06:18;;;;;;;67.24999;31.25;;;;;;;3.01;100;96753.99;;;;
2020/11/06 02:07:19;;;;;;;67.24999;31.25;;;;;;;3.01;100;96753.99;;;;
2020/11/06 02:08:26;;;;;;;67.24999;31.25;;;;;;;3.01;100;96753.99;;;;
2020/11/06 02:09:26;;;;;;;85.25;35.6;;;;;;;3.36;100;96756.14;;;;
2020/11/06 02:10:27;;;;;;;85.25;35.6;;;;;;;3.36;100;96756.14;;;;
2020/11/06 02:11:28;;;;;;;85.25;35.6;;;;;;;3.36;100;96756.14;;;;
2020/11/06 02:12:32;;;;;;;85.25;35.6;;;;;;;3.36;100;96756.14;;;;
2020/11/06 02:13:39;;;;;;;85.25;35.6;;;;;;;3.36;100;96756.14;;;;
2020/11/06 02:14:43;;;;;;;85.25;35.6;;;;;;;3.36;100;96756.14;;;;
2020/11/06 02:15:43;;;;;;;85.25;35.6;;;;;;;3.36;100;96756.14;;;;
2020/11/06 02:16:48;;;;;;;85.25;35.6;;;;;;;3.36;100;96756.14;;;;
2020/11/06 02:17:49;;;;;;;85.25;35.6;;;;;;;3.36;100;96756.14;;;;
2020/11/06 02:18:50;;;;;;;85.25;35.6;;;;;;;3.36;100;96756.14;;;;
2020/11/06 02:19:54;;;;;;;85.25;35.6;;;;;;;3.36;100;96756.14;;;;
2020/11/06 02:20:59;;;;;;;74.7;33.75;;;;;;;3.73;100;96751.86;;;;
2020/11/06 02:22:04;;;;;;;74.7;33.75;;;;;;;3.73;100;96751.86;;;;
2020/11/06 02:23:07;;;;;;;74.7;33.75;;;;;;;3.73;100;96751.86;;;;
2020/11/06 02:24:07;;;;;;;74.7;33.75;;;;;;;3.73;100;96751.86;;;;
2020/11/06 02:25:18;;;;;;;74.7;33.75;;;;;;;3.73;100;96751.86;;;;
2020/11/06 02:26:22;;;;;;;74.7;33.75;;;;;;;3.73;100;96751.86;;;;
2020/11/06 02:27:49;;;;;;;74.7;33.75;;;;;;;3.73;100;96751.86;;;;
2020/11/06 02:29:05;;;;;;;74.7;33.75;;;;;;;3.73;100;96751.86;;;;
2020/11/06 02:30:06;;;;;;;74.7;33.75;;;;;;;3.73;100;96751.86;;;;
2020/11/06 02:31:07;;;;;;;57.95;29.5;;;;;;;3.97;100;96751.09;;;;
2020/11/06 02:32:07;;;;;;;57.95;29.5;;;;;;;3.97;100;96751.09;;;;
2020/11/06 02:33:15;;;;;;;57.95;29.5;;;;;;;3.97;100;96751.09;;;;
2020/11/06 02:34:57;;;;;;;57.95;29.5;;;;;;;3.97;100;96751.09;;;;
2020/11/06 02:37:03;;;;;;;57.95;29.5;;;;;;;3.97;100;96751.09;;;;
2020/11/06 02:38:33;;;;;;;57.95;29.5;;;;;;;3.97;100;96751.09;;;;
2020/11/06 02:39:55;;;;;;;57.95;29.5;;;;;;;3.97;100;96751.09;;;;
2020/11/06 02:41:00;;;;;;;57.95;29.5;;;;;;;3.97;100;96751.09;;;;
2020/11/06 02:42:00;;;;;;;53.55001;27.85;;;;;;;4.13;100;96737.81;;;;
2020/11/06 02:43:01;;;;;;;53.55001;27.85;;;;;;;4.13;100;96737.81;;;;
2020/11/06 02:44:26;;;;;;;53.55001;27.85;;;;;;;4.13;100;96737.81;;;;
2020/11/06 02:45:26;;;;;;;53.55001;27.85;;;;;;;4.13;100;96737.81;;;;
2020/11/06 02:46:29;;;;;;;53.55001;27.85;;;;;;;4.13;100;96737.81;;;;
2020/11/06 02:47:29;;;;;;;53.55001;27.85;;;;;;;4.13;100;96737.81;;;;
2020/11/06 02:49:34;;;;;;;53.55001;27.85;;;;;;;4.13;100;96737.81;;;;
2020/11/06 02:50:38;;;;;;;53.55001;27.85;;;;;;;4.13;100;96737.81;;;;
2020/11/06 02:51:40;;;;;;;53.55001;27.85;;;;;;;4.13;100;96737.81;;;;
2020/11/06 02:52:41;;;;;;;48.3;27.9;;;;;;;4.22;100;96734.23;;;;
2020/11/06 02:53:44;;;;;;;48.3;27.9;;;;;;;4.22;100;96734.23;;;;
2020/11/06 02:55:02;;;;;;;48.3;27.9;;;;;;;4.22;100;96734.23;;;;
2020/11/06 02:56:06;;;;;;;48.3;27.9;;;;;;;4.22;100;96734.23;;;;
2020/11/06 02:57:07;;;;;;;48.3;27.9;;;;;;;4.22;100;96734.23;;;;
2020/11/06 02:58:21;;;;;;;48.3;27.9;;;;;;;4.22;100;96734.23;;;;
2020/11/06 02:59:24;;;;;;;48.3;27.9;;;;;;;4.22;100;96734.23;;;;
2020/11/06 03:00:43;;;;;;;48.3;27.9;;;;;;;4.22;100;96734.23;;;;
2020/11/06 03:02:15;;;;;;;48.3;27.9;;;;;;;4.22;100;96734.23;;;;
2020/11/06 03:06:02;;;;;;;48.15;26.2;;;;;;;4.35;100;96739.06;;;;
2020/11/06 03:07:07;;;;;;;48.15;26.2;;;;;;;4.35;100;96739.06;;;;
2020/11/06 03:08:07;;;;;;;48.15;26.2;;;;;;;4.35;100;96739.06;;;;
2020/11/06 03:09:32;;;;;;;48.15;26.2;;;;;;;4.35;100;96739.06;;;;
2020/11/06 03:10:32;;;;;;;48.15;26.2;;;;;;;4.35;100;96739.06;;;;
2020/11/06 03:11:35;;;;;;;48.15;26.2;;;;;;;4.35;100;96739.06;;;;
2020/11/06 03:12:39;;;;;;;48.15;26.2;;;;;;;4.35;100;96739.06;;;;
2020/11/06 03:13:41;;;;;;;46.75;26;;;;;;;4.43;100;96724.36;;;;
2020/11/06 03:15:17;;;;;;;46.75;26;;;;;;;4.43;100;96724.36;;;;
2020/11/06 03:16:50;;;;;;;46.75;26;;;;;;;4.43;100;96724.36;;;;
2020/11/06 03:17:57;;;;;;;46.75;26;;;;;;;4.43;100;96724.36;;;;
2020/11/06 03:19:11;;;;;;;46.75;26;;;;;;;4.43;100;96724.36;;;;
2020/11/06 03:20:33;;;;;;;46.75;26;;;;;;;4.43;100;96724.36;;;;
2020/11/06 03:21:33;;;;;;;46.75;26;;;;;;;4.43;100;96724.36;;;;
2020/11/06 03:22:45;;;;;;;46.75;26;;;;;;;4.43;100;96724.36;;;;
2020/11/06 03:23:50;;;;;;;46.75;26;;;;;;;4.43;100;96724.36;;;;
2020/11/06 03:24:51;;;;;;;50.15;25.00001;;;;;;;4.46;100;96724.55;;;;
2020/11/06 03:25:52;;;;;;;50.15;25.00001;;;;;;;4.46;100;96724.55;;;;
2020/11/06 03:26:59;;;;;;;50.15;25.00001;;;;;;;4.46;100;96724.55;;;;
2020/11/06 03:28:20;;;;;;;50.15;25.00001;;;;;;;4.46;100;96724.55;;;;
2020/11/06 03:29:20;;;;;;;50.15;25.00001;;;;;;;4.46;100;96724.55;;;;
2020/11/06 03:30:21;;;;;;;50.15;25.00001;;;;;;;4.46;100;96724.55;;;;
2020/11/06 03:31:23;;;;;;;50.15;25.00001;;;;;;;4.46;100;96724.55;;;;
2020/11/06 03:32:24;;;;;;;50.15;25.00001;;;;;;;4.46;100;96724.55;;;;
2020/11/06 03:33:27;;;;;;;50.15;25.00001;;;;;;;4.46;100;96724.55;;;;
2020/11/06 03:34:33;;;;;;;50.15;25.00001;;;;;;;4.46;100;96724.55;;;;
2020/11/06 03:35:33;;;;;;;57.25;26.5;;;;;;;4.51;100;96723.49;;;;
2020/11/06 03:36:54;;;;;;;57.25;26.5;;;;;;;4.51;100;96723.49;;;;
2020/11/06 03:38:10;;;;;;;57.25;26.5;;;;;;;4.51;100;96723.49;;;;
2020/11/06 03:39:10;;;;;;;57.25;26.5;;;;;;;4.51;100;96723.49;;;;
2020/11/06 03:40:23;;;;;;;57.25;26.5;;;;;;;4.51;100;96723.49;;;;
2020/11/06 03:41:26;;;;;;;57.25;26.5;;;;;;;4.51;100;96723.49;;;;
2020/11/06 03:42:29;;;;;;;57.25;26.5;;;;;;;4.51;100;96723.49;;;;
2020/11/06 03:43:33;;;;;;;57.25;26.5;;;;;;;4.51;100;96723.49;;;;
2020/11/06 03:44:53;;;;;;;57.25;26.5;;;;;;;4.51;100;96723.49;;;;
2020/11/06 03:46:13;;;;;;;54.90001;27.1;;;;;;;4.55;100;96710.1;;;;
2020/11/06 03:48:11;;;;;;;54.90001;27.1;;;;;;;4.55;100;96710.1;;;;
2020/11/06 03:49:14;;;;;;;54.90001;27.1;;;;;;;4.55;100;96710.1;;;;
2020/11/06 03:50:14;;;;;;;54.90001;27.1;;;;;;;4.55;100;96710.1;;;;
2020/11/06 03:51:15;;;;;;;54.90001;27.1;;;;;;;4.55;100;96710.1;;;;
2020/11/06 03:52:16;;;;;;;54.90001;27.1;;;;;;;4.55;100;96710.1;;;;
2020/11/06 03:54:28;;;;;;;54.90001;27.1;;;;;;;4.55;100;96710.1;;;;
2020/11/06 03:55:32;;;;;;;54.90001;27.1;;;;;;;4.55;100;96710.1;;;;
2020/11/06 03:56:35;;;;;;;60.85;27.85;;;;;;;4.53;100;96696.98;;;;
2020/11/06 03:57:35;;;;;;;60.85;27.85;;;;;;;4.53;100;96696.98;;;;
2020/11/06 03:58:42;;;;;;;60.85;27.85;;;;;;;4.53;100;96696.98;;;;
2020/11/06 03:59:43;;;;;;;60.85;27.85;;;;;;;4.53;100;96696.98;;;;
2020/11/06 04:00:44;;;;;;;60.85;27.85;;;;;;;4.53;100;96696.98;;;;
2020/11/06 04:01:44;;;;;;;60.85;27.85;;;;;;;4.53;100;96696.98;;;;
2020/11/06 04:02:50;;;;;;;60.85;27.85;;;;;;;4.53;100;96696.98;;;;
2020/11/06 04:03:57;;;;;;;60.85;27.85;;;;;;;4.53;100;96696.98;;;;
2020/11/06 04:05:19;;;;;;;60.85;27.85;;;;;;;4.53;100;96696.98;;;;
2020/11/06 04:06:22;;;;;;;60.85;27.85;;;;;;;4.53;100;96696.98;;;;
2020/11/06 04:07:54;;;;;;;44.75;24.95;;;;;;;4.51;100;96693.22;;;;
2020/11/06 04:09:13;;;;;;;44.75;24.95;;;;;;;4.51;100;96693.22;;;;
2020/11/06 04:10:17;;;;;;;44.75;24.95;;;;;;;4.51;100;96693.22;;;;
2020/11/06 04:11:18;;;;;;;44.75;24.95;;;;;;;4.51;100;96693.22;;;;
2020/11/06 04:12:18;;;;;;;44.75;24.95;;;;;;;4.51;100;96693.22;;;;
2020/11/06 04:13:25;;;;;;;44.75;24.95;;;;;;;4.51;100;96693.22;;;;
2020/11/06 04:14:25;;;;;;;44.75;24.95;;;;;;;4.51;100;96693.22;;;;
2020/11/06 04:15:42;;;;;;;44.75;24.95;;;;;;;4.51;100;96693.22;;;;
2020/11/06 04:17:00;;;;;;;44.75;24.95;;;;;;;4.51;100;96693.22;;;;
2020/11/06 04:18:01;;;;;;;49.3;25.25;;;;;;;4.59;100;96701.65;;;;
2020/11/06 04:19:05;;;;;;;49.3;25.25;;;;;;;4.59;100;96701.65;;;;
2020/11/06 04:20:07;;;;;;;49.3;25.25;;;;;;;4.59;100;96701.65;;;;
2020/11/06 04:21:36;;;;;;;49.3;25.25;;;;;;;4.59;100;96701.65;;;;
2020/11/06 04:22:41;;;;;;;49.3;25.25;;;;;;;4.59;100;96701.65;;;;
2020/11/06 04:23:43;;;;;;;49.3;25.25;;;;;;;4.59;100;96701.65;;;;
2020/11/06 04:24:44;;;;;;;49.3;25.25;;;;;;;4.59;100;96701.65;;;;
2020/11/06 04:25:44;;;;;;;49.3;25.25;;;;;;;4.59;100;96701.65;;;;
2020/11/06 04:26:50;;;;;;;49.3;25.25;;;;;;;4.59;100;96701.65;;;;
2020/11/06 04:28:01;;;;;;;49.3;25.25;;;;;;;4.59;100;96701.65;;;;
2020/11/06 04:29:03;;;;;;;49.75;26.1;;;;;;;4.68;100;96706.94;;;;
2020/11/06 04:30:04;;;;;;;49.75;26.1;;;;;;;4.68;100;96706.94;;;;
2020/11/06 04:31:04;;;;;;;49.75;26.1;;;;;;;4.68;100;96706.94;;;;
2020/11/06 04:32:08;;;;;;;49.75;26.1;;;;;;;4.68;100;96706.94;;;;
2020/11/06 04:33:27;;;;;;;49.75;26.1;;;;;;;4.68;100;96706.94;;;;
2020/11/06 04:35:00;;;;;;;49.75;26.1;;;;;;;4.68;100;96706.94;;;;
2020/11/06 04:36:01;;;;;;;49.75;26.1;;;;;;;4.68;100;96706.94;;;;
2020/11/06 04:37:07;;;;;;;49.75;26.1;;;;;;;4.68;100;96706.94;;;;
2020/11/06 04:38:09;;;;;;;49.75;26.1;;;;;;;4.68;100;96706.94;;;;
2020/11/06 04:39:10;;;;;;;48.2;25.7;;;;;;;4.67;100;96711.05;;;;
2020/11/06 04:40:37;;;;;;;48.2;25.7;;;;;;;4.67;100;96711.05;;;;
2020/11/06 04:41:37;;;;;;;48.2;25.7;;;;;;;4.67;100;96711.05;;;;
2020/11/06 04:43:11;;;;;;;48.2;25.7;;;;;;;4.67;100;96711.05;;;;
2020/11/06 04:44:17;;;;;;;48.2;25.7;;;;;;;4.67;100;96711.05;;;;
2020/11/06 04:45:23;;;;;;;48.2;25.7;;;;;;;4.67;100;96711.05;;;;
2020/11/06 04:46:24;;;;;;;48.2;25.7;;;;;;;4.67;100;96711.05;;;;
2020/11/06 04:47:27;;;;;;;48.2;25.7;;;;;;;4.67;100;96711.05;;;;
2020/11/06 04:48:45;;;;;;;48.2;25.7;;;;;;;4.67;100;96711.05;;;;
2020/11/06 04:49:53;;;;;;;51.59999;26.65;;;;;;;4.72;100;96695.34;;;;
2020/11/06 04:50:54;;;;;;;51.59999;26.65;;;;;;;4.72;100;96695.34;;;;
2020/11/06 04:51:56;;;;;;;51.59999;26.65;;;;;;;4.72;100;96695.34;;;;
2020/11/06 04:52:59;;;;;;;51.59999;26.65;;;;;;;4.72;100;96695.34;;;;
2020/11/06 04:53:59;;;;;;;51.59999;26.65;;;;;;;4.72;100;96695.34;;;;
2020/11/06 04:55:21;;;;;;;51.59999;26.65;;;;;;;4.72;100;96695.34;;;;
2020/11/06 04:56:24;;;;;;;51.59999;26.65;;;;;;;4.72;100;96695.34;;;;
2020/11/06 04:57:37;;;;;;;51.59999;26.65;;;;;;;4.72;100;96695.34;;;;
2020/11/06 04:58:45;;;;;;;51.59999;26.65;;;;;;;4.72;100;96695.34;;;;
2020/11/06 04:59:46;;;;;;;51.59999;26.65;;;;;;;4.72;100;96695.34;;;;
2020/11/06 05:00:51;;;;;;;62.09999;28.55;;;;;;;4.73;100;96685.38;;;;
2020/11/06 05:01:54;;;;;;;62.09999;28.55;;;;;;;4.73;100;96685.38;;;;
2020/11/06 05:02:55;;;;;;;62.09999;28.55;;;;;;;4.73;100;96685.38;;;;
2020/11/06 05:04:03;;;;;;;62.09999;28.55;;;;;;;4.73;100;96685.38;;;;
2020/11/06 05:05:05;;;;;;;62.09999;28.55;;;;;;;4.73;100;96685.38;;;;
2020/11/06 05:06:09;;;;;;;62.09999;28.55;;;;;;;4.73;100;96685.38;;;;
2020/11/06 05:07:12;;;;;;;62.09999;28.55;;;;;;;4.73;100;96685.38;;;;
2020/11/06 05:08:38;;;;;;;62.09999;28.55;;;;;;;4.73;100;96685.38;;;;
2020/11/06 05:09:46;;;;;;;62.09999;28.55;;;;;;;4.73;100;96685.38;;;;
2020/11/06 05:10:49;;;;;;;62.40001;28.3;;;;;;;4.78;100;96666.17;;;;
2020/11/06 05:12:25;;;;;;;62.40001;28.3;;;;;;;4.78;100;96666.17;;;;
2020/11/06 05:13:26;;;;;;;62.40001;28.3;;;;;;;4.78;100;96666.17;;;;
2020/11/06 05:14:48;;;;;;;62.40001;28.3;;;;;;;4.78;100;96666.17;;;;
2020/11/06 05:15:59;;;;;;;62.40001;28.3;;;;;;;4.78;100;96666.17;;;;
2020/11/06 05:17:00;;;;;;;62.40001;28.3;;;;;;;4.78;100;96666.17;;;;
2020/11/06 05:18:08;;;;;;;62.40001;28.3;;;;;;;4.78;100;96666.17;;;;
2020/11/06 05:19:20;;;;;;;62.40001;28.3;;;;;;;4.78;100;96666.17;;;;
2020/11/06 05:23:57;;;;;;;65.25;28.6;;;;;;;4.91;100;96643.73;;;;
2020/11/06 05:25:17;;;;;;;65.25;28.6;;;;;;;4.91;100;96643.73;;;;
2020/11/06 05:26:24;;;;;;;65.25;28.6;;;;;;;4.91;100;96643.73;;;;
2020/11/06 05:27:29;;;;;;;65.25;28.6;;;;;;;4.91;100;96643.73;;;;
2020/11/06 05:28:30;;;;;;;65.25;28.6;;;;;;;4.91;100;96643.73;;;;
2020/11/06 05:32:11;;;;;;;59.8;27.05;;;;;;;4.97;100;96646.18;;;;
2020/11/06 05:33:13;;;;;;;59.8;27.05;;;;;;;4.97;100;96646.18;;;;
2020/11/06 05:34:22;;;;;;;59.8;27.05;;;;;;;4.97;100;96646.18;;;;
2020/11/06 05:35:55;;;;;;;59.8;27.05;;;;;;;4.97;100;96646.18;;;;
2020/11/06 05:36:59;;;;;;;59.8;27.05;;;;;;;4.97;100;96646.18;;;;
2020/11/06 05:38:46;;;;;;;59.8;27.05;;;;;;;4.97;100;96646.18;;;;
2020/11/06 05:39:48;;;;;;;59.8;27.05;;;;;;;4.97;100;96646.18;;;;
2020/11/06 05:41:54;;;;;;;59.8;27.05;;;;;;;4.97;100;96646.18;;;;
2020/11/06 05:42:54;;;;;;;55.99999;24.5;;;;;;;5.12;100;96634.29;;;;
2020/11/06 05:44:01;;;;;;;55.99999;24.5;;;;;;;5.12;100;96634.29;;;;
2020/11/06 05:45:19;;;;;;;55.99999;24.5;;;;;;;5.12;100;96634.29;;;;
2020/11/06 05:46:19;;;;;;;55.99999;24.5;;;;;;;5.12;100;96634.29;;;;
2020/11/06 05:47:24;;;;;;;55.99999;24.5;;;;;;;5.12;100;96634.29;;;;
2020/11/06 05:48:29;;;;;;;55.99999;24.5;;;;;;;5.12;100;96634.29;;;;
2020/11/06 05:49:36;;;;;;;55.99999;24.5;;;;;;;5.12;100;96634.29;;;;
2020/11/06 05:50:43;;;;;;;55.99999;24.5;;;;;;;5.12;100;96634.29;;;;
2020/11/06 05:51:43;;;;;;;55.99999;24.5;;;;;;;5.12;100;96634.29;;;;
2020/11/06 05:52:47;;;;;;;55.99999;24.5;;;;;;;5.12;100;96634.29;;;;
2020/11/06 05:53:47;;;;;;;58;24.65;;;;;;;5.25;100;96640.36;;;;
2020/11/06 05:54:48;;;;;;;58;24.65;;;;;;;5.25;100;96640.36;;;;
2020/11/06 05:55:51;;;;;;;58;24.65;;;;;;;5.25;100;96640.36;;;;
2020/11/06 05:56:56;;;;;;;58;24.65;;;;;;;5.25;100;96640.36;;;;
2020/11/06 05:57:59;;;;;;;58;24.65;;;;;;;5.25;100;96640.36;;;;
2020/11/06 05:59:00;;;;;;;58;24.65;;;;;;;5.25;100;96640.36;;;;
2020/11/06 06:00:10;;;;;;;58;24.65;;;;;;;5.25;100;96640.36;;;;
2020/11/06 06:01:19;;;;;;;58;24.65;;;;;;;5.25;100;96640.36;;;;
2020/11/06 06:02:22;;;;;;;58;24.65;;;;;;;5.25;100;96640.36;;;;
2020/11/06 06:03:29;;;;;;;58;24.65;;;;;;;5.25;100;96640.36;;;;
2020/11/06 06:04:51;;;;;;;57.45;24.55;;;;;;;5.39;100;96642.44;;;;
2020/11/06 06:06:06;;;;;;;57.45;24.55;;;;;;;5.39;100;96642.44;;;;
2020/11/06 06:07:11;;;;;;;57.45;24.55;;;;;;;5.39;100;96642.44;;;;
2020/11/06 06:08:14;;;;;;;57.45;24.55;;;;;;;5.39;100;96642.44;;;;
2020/11/06 06:09:28;;;;;;;57.45;24.55;;;;;;;5.39;100;96642.44;;;;
2020/11/06 06:10:36;;;;;;;57.45;24.55;;;;;;;5.39;100;96642.44;;;;
2020/11/06 06:11:36;;;;;;;57.45;24.55;;;;;;;5.39;100;96642.44;;;;
2020/11/06 06:12:38;;;;;;;57.45;24.55;;;;;;;5.39;100;96642.44;;;;
2020/11/06 06:13:41;;;;;;;57.45;24.55;;;;;;;5.39;100;96642.44;;;;
2020/11/06 06:14:51;;;;;;;53.2;23.6;;;;;;;5.52;100;96636.05;;;;
2020/11/06 06:16:17;;;;;;;53.2;23.6;;;;;;;5.52;100;96636.05;;;;
2020/11/06 06:17:18;;;;;;;53.2;23.6;;;;;;;5.52;100;96636.05;;;;
2020/11/06 06:18:28;;;;;;;53.2;23.6;;;;;;;5.52;100;96636.05;;;;
2020/11/06 06:19:29;;;;;;;53.2;23.6;;;;;;;5.52;100;96636.05;;;;
2020/11/06 06:20:36;;;;;;;53.2;23.6;;;;;;;5.52;100;96636.05;;;;
2020/11/06 06:21:41;;;;;;;53.2;23.6;;;;;;;5.52;100;96636.05;;;;
2020/11/06 06:22:42;;;;;;;53.2;23.6;;;;;;;5.52;100;96636.05;;;;
2020/11/06 06:23:45;;;;;;;53.2;23.6;;;;;;;5.52;100;96636.05;;;;
2020/11/06 06:24:45;;;;;;;53.2;23.6;;;;;;;5.52;100;96636.05;;;;
2020/11/06 06:25:59;;;;;;;50.65;22.95;;;;;;;5.6;100;96633.76;;;;
2020/11/06 06:27:10;;;;;;;50.65;22.95;;;;;;;5.6;100;96633.76;;;;
2020/11/06 06:29:40;;;;;;;50.65;22.95;;;;;;;5.6;100;96633.76;;;;
2020/11/06 06:30:49;;;;;;;50.65;22.95;;;;;;;5.6;100;96633.76;;;;
2020/11/06 06:32:48;;;;;;;50.65;22.95;;;;;;;5.6;100;96633.76;;;;
2020/11/06 06:35:00;;;;;;;50.65;22.95;;;;;;;5.6;100;96633.76;;;;
2020/11/06 06:36:06;;;;;;;50.65;22.95;;;;;;;5.6;100;96633.76;;;;
2020/11/06 06:38:45;;;;;;;45.59999;22.2;;;;;;;5.76;100;96646.6;;;;
2020/11/06 06:40:15;;;;;;;45.59999;22.2;;;;;;;5.76;100;96646.6;;;;
2020/11/06 06:41:19;;;;;;;45.59999;22.2;;;;;;;5.76;100;96646.6;;;;
2020/11/06 06:42:41;;;;;;;45.59999;22.2;;;;;;;5.76;100;96646.6;;;;
2020/11/06 06:43:53;;;;;;;45.59999;22.2;;;;;;;5.76;100;96646.6;;;;
2020/11/06 06:45:21;;;;;;;45.59999;22.2;;;;;;;5.76;100;96646.6;;;;
2020/11/06 06:47:06;;;;;;;43.85;22.15;;;;;;;5.86;100;96653.56;;;;
2020/11/06 06:48:39;;;;;;;43.85;22.15;;;;;;;5.86;100;96653.56;;;;
2020/11/06 06:49:51;;;;;;;43.85;22.15;;;;;;;5.86;100;96653.56;;;;
2020/11/06 06:51:00;;;;;;;43.85;22.15;;;;;;;5.86;100;96653.56;;;;
2020/11/06 06:52:05;;;;;;;43.85;22.15;;;;;;;5.86;100;96653.56;;;;
2020/11/06 06:53:07;;;;;;;43.85;22.15;;;;;;;5.86;100;96653.56;;;;
2020/11/06 06:54:23;;;;;;;43.85;22.15;;;;;;;5.86;100;96653.56;;;;
2020/11/06 06:56:37;;;;;;;43.85;22.15;;;;;;;5.86;100;96653.56;;;;
2020/11/06 06:57:46;;;;;;;45.90001;23.1;;;;;;;6;100;96643.44;;;;
2020/11/06 06:58:48;;;;;;;45.90001;23.1;;;;;;;6;100;96643.44;;;;
2020/11/06 07:00:26;;;;;;;45.90001;23.1;;;;;;;6;100;96643.44;;;;
2020/11/06 07:02:07;;;;;;;45.90001;23.1;;;;;;;6;100;96643.44;;;;
2020/11/06 07:03:11;;;;;;;45.90001;23.1;;;;;;;6;100;96643.44;;;;
2020/11/06 07:04:18;;;;;;;45.90001;23.1;;;;;;;6;100;96643.44;;;;
2020/11/06 07:05:42;;;;;;;45.90001;23.1;;;;;;;6;100;96643.44;;;;
2020/11/06 07:06:57;;;;;;;45.90001;23.1;;;;;;;6;100;96643.44;;;;
2020/11/06 07:08:03;;;;;;;45.90001;23.1;;;;;;;6;100;96643.44;;;;
2020/11/06 07:09:05;;;;;;;47.34999;25.15;;;;;;;6.21;100;96647.69;;;;
2020/11/06 07:12:47;;;;;;;47.34999;25.15;;;;;;;6.21;100;96647.69;;;;
2020/11/06 07:14:19;;;;;;;47.34999;25.15;;;;;;;6.21;100;96647.69;;;;
2020/11/06 07:16:15;;;;;;;47.34999;25.15;;;;;;;6.21;100;96647.69;;;;
2020/11/06 07:17:26;;;;;;;47.34999;25.15;;;;;;;6.21;100;96647.69;;;;
2020/11/06 07:18:33;;;;;;;47.34999;25.15;;;;;;;6.21;100;96647.69;;;;
2020/11/06 07:19:33;;;;;;;39.75001;23.35;;;;;;;6.38;100;96652.47;;;;
2020/11/06 07:20:37;;;;;;;39.75001;23.35;;;;;;;6.38;100;96652.47;;;;
2020/11/06 07:21:46;;;;;;;39.75001;23.35;;;;;;;6.38;100;96652.47;;;;
2020/11/06 07:23:13;;;;;;;39.75001;23.35;;;;;;;6.38;100;96652.47;;;;